Kilmore Gap, Australia
Current Conditions -  °F | °C
As of 10:00 PM on Friday 19 Dec 2014 (Local Time) from YMML Reporting Station
Few Clouds Few Clouds  
Wind Chill: 57°   Ceiling: Unl
Heat Index: 57°   Visibility: 6mi
Dew Point: 45°   Wind: 8mph
Humidity: 63%   Direction: 170°S
Pressure: 30.12"   Gusts: NA
Location:  37.38°S, 144.97°E
Report Text: YMML 191100Z 17007KT 9999 FEW037 14/07 Q1020 NOSIG
Loading
Personal Weather Stations






























Interactive Weather Map New forecast layout! Learn more

10-Day Weather Forecast

Advertisements
Track Severe Weather on mobile